Time;durP1;ratioP1;P1;durP2;ratioP2;P2;SDS_P1;SDS_P2;PMS_P1;PMS_P2;Temp;Humidity;BMP_temperature;BMP_pressure;BME280_temperature;BME280_humidity;BME280_pressure;Samples;Min_cycle;Max_cycle;Signal;HPM_P1;HPM_P2
2022/01/22 00:01:48;;;;;;;4.90;3.50;;;20.30;57.30;;;;;;5058136;28;20050;-74
2022/01/22 00:04:14;;;;;;;5.88;3.20;;;20.20;57.30;;;;;;5075737;28;20128;-74
2022/01/22 00:06:41;;;;;;;5.30;2.97;;;20.20;57.40;;;;;;5058906;28;20041;-73
2022/01/22 00:09:08;;;;;;;5.38;3.40;;;20.30;57.60;;;;;;5059591;28;20062;-74
2022/01/22 00:11:38;;;;;;;3.13;2.33;;;20.10;57.40;;;;;;5058995;28;20069;-73
2022/01/22 00:14:23;;;;;;;5.88;3.75;;;20.10;57.40;;;;;;5058537;28;20029;-74
2022/01/22 00:16:56;;;;;;;5.05;3.00;;;20.10;57.60;;;;;;5058424;28;20038;-74
2022/01/22 00:19:23;;;;;;;4.55;2.63;;;20.00;57.80;;;;;;5059206;28;20131;-73
2022/01/22 00:21:50;;;;;;;3.17;2.28;;;20.10;57.50;;;;;;5057983;28;20037;-74
2022/01/22 00:24:17;;;;;;;4.20;2.42;;;20.20;57.70;;;;;;5059106;28;20037;-74
2022/01/22 00:26:44;;;;;;;3.75;2.35;;;20.30;57.80;;;;;;5059092;28;20075;-73
2022/01/22 00:29:11;;;;;;;3.35;1.83;;;20.20;57.50;;;;;;5059187;28;20041;-73
2022/01/22 00:31:39;;;;;;;3.28;2.40;;;20.30;57.50;;;;;;5059022;28;20052;-74
2022/01/22 00:34:07;;;;;;;2.75;1.92;;;20.30;57.30;;;;;;5059089;28;20101;-73
2022/01/22 00:36:34;;;;;;;4.53;2.17;;;20.30;57.40;;;;;;5058509;28;20029;-74
2022/01/22 00:39:00;;;;;;;5.30;2.25;;;20.20;57.20;;;;;;5058200;28;20052;-74
2022/01/22 00:41:26;;;;;;;4.32;2.28;;;20.30;57.20;;;;;;5057851;28;20049;-73
2022/01/22 00:43:53;;;;;;;4.90;2.25;;;20.50;57.00;;;;;;5057393;28;20083;-74
2022/01/22 00:46:20;;;;;;;3.88;2.60;;;20.50;56.80;;;;;;5046242;28;20030;-74
2022/01/22 00:48:46;;;;;;;3.72;2.47;;;20.50;56.90;;;;;;5058827;28;20097;-74
2022/01/22 00:51:13;;;;;;;3.80;2.20;;;20.40;56.90;;;;;;5057906;28;20041;-73
2022/01/22 00:53:39;;;;;;;4.68;2.28;;;20.40;56.90;;;;;;5058149;28;20065;-74
2022/01/22 00:56:05;;;;;;;3.97;2.15;;;20.40;56.90;;;;;;5058245;28;20060;-74
2022/01/22 00:58:32;;;;;;;3.20;1.95;;;20.40;57.00;;;;;;5055268;28;20041;-73
2022/01/22 01:00:58;;;;;;;4.47;2.67;;;20.30;57.20;;;;;;5058497;28;20095;-74
2022/01/22 01:03:24;;;;;;;3.90;2.03;;;20.20;57.10;;;;;;5058544;28;20033;-74
2022/01/22 01:05:50;;;;;;;5.10;2.22;;;20.10;57.20;;;;;;5058083;28;20041;-73
2022/01/22 01:08:17;;;;;;;4.78;2.20;;;20.10;57.50;;;;;;5057343;28;20088;-74
2022/01/22 01:10:44;;;;;;;4.07;2.33;;;20.20;57.60;;;;;;5054200;28;20051;-74
2022/01/22 01:13:13;;;;;;;2.85;2.05;;;20.20;57.40;;;;;;5058094;28;20077;-74
2022/01/22 01:15:59;;;;;;;3.60;2.17;;;20.30;57.40;;;;;;5040751;28;20064;-74
2022/01/22 01:34:58;;;;;;;2.78;2.00;;;20.40;56.70;;;;;;4977724;29;20047;-74
2022/01/22 01:37:25;;;;;;;3.25;2.17;;;20.30;56.70;;;;;;4976475;29;20070;-73
2022/01/22 01:39:58;;;;;;;3.40;2.15;;;20.30;56.70;;;;;;4995716;28;20041;-73
2022/01/22 01:42:50;;;;;;;2.90;2.08;;;20.40;57.10;;;;;;5057345;28;20068;-73
2022/01/22 01:45:14;;;;;;;5.30;2.10;;;20.40;56.70;;;;;;5057177;28;20049;-74
2022/01/22 01:47:58;;;;;;;2.65;2.00;;;20.40;56.80;;;;;;5020069;28;20037;-73
2022/01/22 01:50:25;;;;;;;3.88;1.88;;;20.50;56.70;;;;;;5019476;28;20064;-73
2022/01/22 01:53:06;;;;;;;2.85;2.05;;;20.50;56.70;;;;;;5038953;28;20041;-73
2022/01/22 01:56:04;;;;;;;3.15;2.03;;;20.50;56.90;;;;;;5073112;28;20042;-73
2022/01/22 01:58:29;;;;;;;2.40;2.10;;;20.50;56.70;;;;;;5056518;28;20076;-73
2022/01/22 02:01:00;;;;;;;4.50;2.58;;;20.40;57.00;;;;;;5053905;28;20056;-74
2022/01/22 02:03:27;;;;;;;4.03;2.17;;;20.30;57.30;;;;;;5053674;28;20041;-74
2022/01/22 02:06:10;;;;;;;5.80;2.15;;;20.40;57.30;;;;;;5038771;28;20038;-74
2022/01/22 02:08:37;;;;;;;5.20;2.58;;;20.50;57.50;;;;;;5055124;28;20029;-73
2022/01/22 02:11:12;;;;;;;3.10;2.25;;;20.30;57.40;;;;;;5039920;28;20048;-74
2022/01/22 02:14:05;;;;;;;3.88;2.35;;;20.30;57.40;;;;;;5039969;28;20049;-74
2022/01/22 02:25:32;;;;;;;3.22;2.50;;;20.30;57.70;;;;;;5056971;28;20037;-73
2022/01/22 02:28:00;;;;;;;5.68;2.25;;;20.30;57.60;;;;;;5056127;28;20088;-74
2022/01/22 02:30:31;;;;;;;4.20;2.15;;;20.30;57.60;;;;;;5055050;28;20053;-75
2022/01/22 02:36:00;;;;;;;3.75;2.30;;;20.40;57.30;;;;;;5054325;28;20076;-73
2022/01/22 02:38:36;;;;;;;3.55;2.40;;;20.40;57.30;;;;;;5070814;28;20037;-73
2022/01/22 02:41:04;;;;;;;3.35;2.35;;;20.30;57.00;;;;;;5056455;28;20047;-74
2022/01/22 02:43:31;;;;;;;3.35;1.90;;;20.50;57.20;;;;;;5072792;28;20116;-74
2022/01/22 02:46:00;;;;;;;3.08;2.17;;;20.40;57.10;;;;;;5056285;28;20045;-74
2022/01/22 02:48:26;;;;;;;3.65;1.77;;;20.40;57.00;;;;;;5052241;28;20097;-74
2022/01/22 02:50:52;;;;;;;4.40;2.33;;;20.40;57.30;;;;;;5052716;28;20053;-74
2022/01/22 02:53:19;;;;;;;4.80;2.20;;;20.40;57.30;;;;;;5055617;28;20101;-73
2022/01/22 02:55:46;;;;;;;6.97;2.30;;;20.60;57.00;;;;;;5038994;28;20033;-74
2022/01/22 02:58:13;;;;;;;4.03;2.10;;;20.50;56.80;;;;;;5055438;28;20044;-74
2022/01/22 03:00:39;;;;;;;2.72;1.90;;;20.60;56.80;;;;;;5054349;28;20125;-74
2022/01/22 03:03:06;;;;;;;2.88;2.22;;;20.50;56.90;;;;;;5038934;28;20029;-73
2022/01/22 03:05:34;;;;;;;4.60;2.30;;;20.60;57.00;;;;;;5038172;28;20045;-74
2022/01/22 03:08:06;;;;;;;4.13;2.33;;;20.60;56.80;;;;;;5039697;28;20120;-73
2022/01/22 03:10:32;;;;;;;3.53;2.25;;;20.60;56.70;;;;;;5037959;28;20071;-73
2022/01/22 03:15:47;;;;;;;3.63;2.05;;;20.50;57.10;;;;;;5055380;28;20052;-73
2022/01/22 03:18:52;;;;;;;2.15;1.85;;;20.60;57.20;;;;;;5051796;28;20106;-74
2022/01/22 03:21:25;;;;;;;4.32;2.22;;;20.60;56.70;;;;;;5054039;28;20041;-74
2022/01/22 03:29:32;;;;;;;3.25;2.20;;;20.40;57.10;;;;;;5038108;28;20040;-74
2022/01/22 03:32:00;;;;;;;4.10;2.22;;;20.50;57.40;;;;;;5055088;28;20042;-74
2022/01/22 03:34:28;;;;;;;2.90;1.92;;;20.40;57.30;;;;;;5054052;28;20035;-73
2022/01/22 03:36:55;;;;;;;4.03;2.60;;;20.40;57.50;;;;;;5055029;28;20052;-73
2022/01/22 03:39:21;;;;;;;2.00;1.77;;;20.20;57.40;;;;;;5071763;28;20080;-73
2022/01/22 03:41:51;;;;;;;2.22;1.85;;;20.40;57.60;;;;;;5055672;28;20041;-73
2022/01/22 03:44:18;;;;;;;3.45;2.05;;;20.50;57.30;;;;;;5050527;28;20037;-74
2022/01/22 03:46:45;;;;;;;2.55;2.00;;;20.50;57.10;;;;;;5051525;28;20038;-74
2022/01/22 03:49:12;;;;;;;6.32;2.00;;;20.40;57.00;;;;;;5051952;28;20097;-73
2022/01/22 03:51:39;;;;;;;2.38;1.70;;;20.40;57.40;;;;;;5035519;28;20041;-74
2022/01/22 03:54:05;;;;;;;3.92;2.30;;;20.40;57.00;;;;;;5057014;28;20037;-74
2022/01/22 03:56:31;;;;;;;3.53;2.03;;;20.30;57.00;;;;;;5044898;28;20108;-73
2022/01/22 03:59:15;;;;;;;4.97;2.30;;;20.60;56.90;;;;;;5055160;28;20243;-74
2022/01/22 04:04:54;;;;;;;2.85;2.08;;;20.40;56.90;;;;;;5055217;28;20100;-73
2022/01/22 04:09:53;;;;;;;3.50;2.10;;;20.40;57.40;;;;;;5055476;28;20050;-73
2022/01/22 04:12:27;;;;;;;3.13;2.15;;;20.30;57.20;;;;;;5047512;28;20046;-74
2022/01/22 04:14:59;;;;;;;3.60;2.00;;;20.30;57.50;;;;;;5046103;28;20067;-74
2022/01/22 04:25:33;;;;;;;3.03;1.83;;;20.20;57.90;;;;;;5059189;28;20102;-73
2022/01/22 04:27:59;;;;;;;3.83;1.92;;;20.10;57.50;;;;;;5058044;28;20590;-73
2022/01/22 04:30:28;;;;;;;4.90;2.40;;;20.20;57.50;;;;;;5058820;28;20042;-74
2022/01/22 04:32:54;;;;;;;2.05;1.70;;;20.30;57.50;;;;;;5055935;28;20088;-73
2022/01/22 04:35:22;;;;;;;4.88;2.40;;;20.40;57.30;;;;;;5054872;28;20056;-73
2022/01/22 04:37:49;;;;;;;3.65;2.00;;;20.40;56.80;;;;;;5058413;28;20041;-73
2022/01/22 04:40:16;;;;;;;4.00;1.85;;;20.50;56.80;;;;;;5057656;28;20040;-74
2022/01/22 04:42:44;;;;;;;2.70;1.58;;;20.50;56.90;;;;;;5058402;28;20080;-73
2022/01/22 04:47:50;;;;;;;5.25;2.10;;;20.40;57.00;;;;;;5057759;28;20044;-74
2022/01/22 04:55:32;;;;;;;2.17;1.90;;;20.30;57.30;;;;;;5073374;28;20101;-74
2022/01/22 04:57:59;;;;;;;2.58;1.65;;;20.40;57.20;;;;;;5057660;28;20042;-72
2022/01/22 05:00:26;;;;;;;2.58;1.83;;;20.20;57.40;;;;;;5057128;28;20034;-74
2022/01/22 05:03:15;;;;;;;2.72;1.92;;;20.00;57.50;;;;;;5040322;28;20056;-74
2022/01/22 05:05:42;;;;;;;3.42;2.10;;;20.20;57.50;;;;;;5057571;28;20033;-74
2022/01/22 05:08:29;;;;;;;4.32;2.08;;;20.00;57.80;;;;;;5045974;28;20041;-73
2022/01/22 05:11:08;;;;;;;6.25;2.08;;;19.90;58.10;;;;;;5057066;28;20048;-74
2022/01/22 05:13:35;;;;;;;3.75;1.98;;;19.80;58.40;;;;;;5057293;28;20046;-73
2022/01/22 05:16:05;;;;;;;3.53;2.30;;;20.00;58.80;;;;;;5056532;28;20033;-74
2022/01/22 05:18:38;;;;;;;4.35;2.15;;;19.80;58.90;;;;;;5039671;28;20087;-74
2022/01/22 05:21:10;;;;;;;2.33;2.03;;;19.70;59.00;;;;;;5054328;28;20040;-73
2022/01/22 05:23:38;;;;;;;2.88;2.00;;;19.70;59.10;;;;;;5040083;28;20037;-73
2022/01/22 05:26:10;;;;;;;3.50;2.30;;;19.70;59.00;;;;;;5053529;28;20042;-73
2022/01/22 05:37:37;;;;;;;12.93;5.70;;;19.80;58.50;;;;;;5055849;28;20105;-74
2022/01/22 05:40:04;;;;;;;30.10;17.73;;;19.80;58.20;;;;;;5052730;28;20045;-73
2022/01/22 05:42:31;;;;;;;26.80;16.55;;;19.80;58.10;;;;;;5036919;28;20046;-74
2022/01/22 05:44:57;;;;;;;21.10;11.80;;;19.80;58.20;;;;;;5036598;28;20038;-73
2022/01/22 05:47:26;;;;;;;17.95;10.23;;;19.70;58.30;;;;;;5056120;28;20080;-74
2022/01/22 05:49:53;;;;;;;19.40;10.70;;;19.70;58.20;;;;;;5056489;28;20037;-73
2022/01/22 05:52:29;;;;;;;15.75;8.75;;;19.60;58.20;;;;;;5056563;28;20051;-74
2022/01/22 06:00:24;;;;;;;10.88;6.75;;;19.50;58.60;;;;;;5055377;28;20056;-74
2022/01/22 06:02:58;;;;;;;11.05;6.78;;;19.60;58.80;;;;;;5024909;28;20045;-73
2022/01/22 06:05:25;;;;;;;10.27;5.25;;;19.50;59.10;;;;;;5052548;28;20041;-73
2022/01/22 06:07:51;;;;;;;11.20;5.68;;;19.40;59.20;;;;;;5053553;28;20045;-73
2022/01/22 06:10:18;;;;;;;8.15;5.03;;;19.30;59.40;;;;;;5069856;28;20113;-73
2022/01/22 06:15:23;;;;;;;8.05;4.70;;;19.30;59.30;;;;;;5057193;28;20037;-73
2022/01/22 06:18:08;;;;;;;4.88;3.72;;;19.30;58.90;;;;;;5051279;28;20033;-72
2022/01/22 06:20:34;;;;;;;5.88;3.97;;;19.30;60.30;;;;;;5047726;28;20054;-73
2022/01/22 06:23:02;;;;;;;7.30;4.70;;;19.40;60.20;;;;;;5046697;28;20037;-73
2022/01/22 06:25:29;;;;;;;11.77;4.60;;;19.50;60.00;;;;;;5045840;28;20041;-72
2022/01/22 06:27:56;;;;;;;7.90;4.30;;;19.50;60.10;;;;;;5038246;28;20048;-73
2022/01/22 06:30:23;;;;;;;4.78;2.75;;;19.50;60.00;;;;;;5038402;28;20084;-72
2022/01/22 06:32:53;;;;;;;5.25;3.03;;;19.50;51.20;;;;;;5044875;28;20060;-74
2022/01/22 06:35:19;;;;;;;6.25;2.65;;;19.90;46.80;;;;;;5054876;28;20068;-72
2022/01/22 06:37:46;;;;;;;4.85;2.90;;;20.10;46.30;;;;;;5054599;28;20053;-72
2022/01/22 06:43:12;;;;;;;3.20;2.03;;;20.40;43.40;;;;;;5053794;28;20104;-72
2022/01/22 06:46:06;;;;;;;4.38;2.22;;;20.50;44.00;;;;;;5038923;28;20048;-71
2022/01/22 06:48:40;;;;;;;10.13;5.78;;;20.70;41.00;;;;;;5055400;28;20033;-71
2022/01/22 06:51:35;;;;;;;6.35;3.70;;;20.80;41.50;;;;;;5038786;28;20042;-72
2022/01/22 06:54:04;;;;;;;5.38;3.28;;;20.80;37.70;;;;;;5055295;28;20052;-72
2022/01/22 06:56:31;;;;;;;7.72;3.65;;;20.80;36.60;;;;;;5055989;28;20075;-74
2022/01/22 06:59:13;;;;;;;7.18;3.80;;;20.80;37.00;;;;;;5056124;28;20041;-74
2022/01/22 07:01:43;;;;;;;9.35;5.00;;;20.90;36.20;;;;;;5051680;28;20054;-74
2022/01/22 07:04:17;;;;;;;13.60;5.65;;;20.90;50.50;;;;;;5051957;28;20061;-74
2022/01/22 07:07:04;;;;;;;10.70;6.10;;;21.00;53.30;;;;;;5038263;28;20041;-74
2022/01/22 07:09:31;;;;;;;9.45;5.53;;;21.10;53.70;;;;;;5035263;28;20077;-73
2022/01/22 07:11:57;;;;;;;11.80;6.68;;;21.10;55.20;;;;;;5035373;28;20080;-73
2022/01/22 07:14:26;;;;;;;11.82;6.50;;;21.00;58.10;;;;;;5050162;28;20106;-75
2022/01/22 07:16:53;;;;;;;16.27;6.80;;;21.10;58.90;;;;;;5037466;28;20077;-75
2022/01/22 07:19:41;;;;;;;11.10;6.18;;;20.90;58.30;;;;;;5034845;28;20045;-74
2022/01/22 07:25:05;;;;;;;14.60;6.18;;;20.80;58.50;;;;;;5034935;28;20034;-74
2022/01/22 07:27:31;;;;;;;15.10;6.93;;;20.80;59.30;;;;;;5035090;28;20118;-75
2022/01/22 07:29:57;;;;;;;11.93;6.25;;;20.60;59.20;;;;;;5046656;28;20046;-75
2022/01/22 07:32:35;;;;;;;12.27;5.88;;;20.60;59.70;;;;;;5054499;28;20049;-74
2022/01/22 07:35:03;;;;;;;10.40;5.85;;;20.80;59.30;;;;;;5053268;28;20072;-74
2022/01/22 07:37:31;;;;;;;13.60;6.38;;;20.90;59.10;;;;;;5053941;28;20048;-73
2022/01/22 07:40:08;;;;;;;7.55;5.03;;;20.90;59.00;;;;;;5054550;28;20112;-75
2022/01/22 07:42:43;;;;;;;13.98;7.10;;;21.10;59.10;;;;;;5054708;28;20096;-75
2022/01/22 07:45:28;;;;;;;14.88;6.70;;;21.10;58.40;;;;;;5054931;28;20051;-75
2022/01/22 07:48:05;;;;;;;13.85;7.57;;;21.10;59.00;;;;;;5041931;28;20041;-75
2022/01/22 07:51:07;;;;;;;13.65;6.90;;;21.10;59.10;;;;;;4988908;28;20058;-75
2022/01/22 07:53:34;;;;;;;14.85;6.07;;;21.10;58.60;;;;;;5029692;28;20063;-76
2022/01/22 07:56:05;;;;;;;11.02;5.25;;;21.00;59.10;;;;;;5058379;28;20072;-75
2022/01/22 07:58:32;;;;;;;13.02;7.75;;;21.00;59.10;;;;;;5044764;28;20045;-74
2022/01/22 08:00:57;;;;;;;11.63;6.68;;;21.00;59.00;;;;;;5057718;28;20057;-76
2022/01/22 08:03:27;;;;;;;12.70;7.22;;;21.00;58.90;;;;;;5049224;28;20032;-75
2022/01/22 08:06:13;;;;;;;10.27;5.53;;;20.90;58.90;;;;;;5058776;28;20071;-75
2022/01/22 08:09:05;;;;;;;11.07;5.18;;;20.70;59.10;;;;;;5030352;28;20079;-75
2022/01/22 08:11:49;;;;;;;8.40;3.72;;;20.70;58.80;;;;;;5058236;28;20041;-75
2022/01/22 08:14:17;;;;;;;8.85;4.93;;;20.70;59.20;;;;;;5052122;28;20041;-74
2022/01/22 08:16:46;;;;;;;8.63;4.15;;;20.80;58.70;;;;;;5057684;28;20045;-77
2022/01/22 08:19:14;;;;;;;9.02;4.30;;;21.00;58.60;;;;;;5062039;28;20045;-76
2022/01/22 08:21:42;;;;;;;5.78;4.13;;;20.90;58.00;;;;;;5058054;28;20041;-77
2022/01/22 08:24:27;;;;;;;6.78;3.83;;;20.80;57.70;;;;;;5058634;28;20038;-77
2022/01/22 08:27:20;;;;;;;8.23;3.97;;;20.90;58.00;;;;;;5057601;28;20034;-76
2022/01/22 08:29:47;;;;;;;5.75;4.20;;;21.10;57.80;;;;;;5041574;28;20042;-76
2022/01/22 08:37:28;;;;;;;8.00;3.60;;;21.00;56.90;;;;;;5056328;28;20048;-76
2022/01/22 08:39:54;;;;;;;6.53;3.67;;;20.90;57.70;;;;;;5040292;28;20110;-76
2022/01/22 08:42:22;;;;;;;4.68;3.08;;;21.00;57.40;;;;;;5056972;28;20044;-76
2022/01/22 08:44:48;;;;;;;6.95;3.72;;;21.00;57.10;;;;;;5040456;28;20063;-76
2022/01/22 08:47:16;;;;;;;6.65;4.13;;;21.00;56.80;;;;;;5057885;28;20091;-76
2022/01/22 08:49:42;;;;;;;5.72;3.33;;;21.00;55.80;;;;;;5057186;28;20065;-76
2022/01/22 08:52:13;;;;;;;4.50;2.65;;;21.10;56.80;;;;;;5057484;28;20068;-76
2022/01/22 08:54:40;;;;;;;3.83;2.33;;;20.90;54.60;;;;;;5057591;28;20050;-76
2022/01/22 08:57:09;;;;;;;4.43;2.42;;;20.70;55.40;;;;;;5057513;28;20063;-76
2022/01/22 08:59:42;;;;;;;3.05;2.20;;;20.60;54.20;;;;;;5057565;28;20042;-76
2022/01/22 09:02:11;;;;;;;5.22;2.08;;;20.60;53.60;;;;;;5056092;28;20071;-76
2022/01/22 09:05:00;;;;;;;4.25;2.47;;;20.50;57.20;;;;;;5051761;28;20034;-75
2022/01/22 09:08:03;;;;;;;4.93;1.70;;;20.40;53.40;;;;;;4997186;28;20050;-73
2022/01/22 09:10:50;;;;;;;2.40;1.20;;;20.50;54.70;;;;;;5044977;28;20114;-73
2022/01/22 09:13:40;;;;;;;3.95;2.10;;;20.40;55.60;;;;;;5052705;28;20048;-72
2022/01/22 09:16:08;;;;;;;5.25;2.00;;;20.40;54.40;;;;;;5048973;28;20034;-72
2022/01/22 09:18:35;;;;;;;5.90;2.20;;;20.50;52.20;;;;;;5045174;28;20130;-73
2022/01/22 09:21:02;;;;;;;3.28;2.22;;;20.40;56.80;;;;;;5053385;28;20050;-75
2022/01/22 09:23:32;;;;;;;5.35;2.38;;;20.40;56.20;;;;;;5045556;28;20049;-73
2022/01/22 09:26:01;;;;;;;1.23;1.13;;;20.50;55.00;;;;;;5055005;28;20037;-73
2022/01/22 09:28:30;;;;;;;3.95;2.10;;;20.30;53.50;;;;;;5051794;28;20057;-73
2022/01/22 09:30:59;;;;;;;3.67;1.63;;;20.30;56.30;;;;;;5044081;28;20092;-73
2022/01/22 09:33:25;;;;;;;11.07;3.05;;;20.40;56.00;;;;;;5055354;28;20067;-74
2022/01/22 09:36:10;;;;;;;0.85;0.77;;;20.40;54.70;;;;;;5052505;28;20044;-72
2022/01/22 09:38:51;;;;;;;0.60;0.60;;;20.70;56.90;;;;;;5044642;28;20052;-73
2022/01/22 09:41:39;;;;;;;0.77;0.57;;;21.00;55.00;;;;;;5030274;28;20046;-73
2022/01/22 09:44:25;;;;;;;0.63;0.63;;;21.20;51.90;;;;;;5035627;28;20049;-71
2022/01/22 09:47:19;;;;;;;2.47;1.08;;;21.10;46.60;;;;;;5035678;28;20060;-74
2022/01/22 09:50:25;;;;;;;0.85;0.70;;;21.30;44.40;;;;;;5017953;28;20022;-73
2022/01/22 09:53:19;;;;;;;3.63;1.05;;;21.30;41.50;;;;;;5024308;28;20153;-74
2022/01/22 09:56:07;;;;;;;1.95;0.98;;;21.30;39.20;;;;;;5026132;28;20045;-72
2022/01/22 09:58:46;;;;;;;3.00;1.88;;;21.40;38.50;;;;;;5045262;28;20080;-70
2022/01/22 10:01:33;;;;;;;2.38;2.17;;;21.40;33.00;;;;;;5050835;28;20049;-71
2022/01/22 10:04:08;;;;;;;5.80;2.03;;;21.50;27.70;;;;;;5051134;28;20049;-72
2022/01/22 10:06:52;;;;;;;5.50;2.42;;;21.60;27.80;;;;;;5036010;28;20092;-71
2022/01/22 10:10:00;;;;;;;6.07;3.10;;;21.50;28.20;;;;;;5050421;28;20060;-72
2022/01/22 10:12:44;;;;;;;2.20;1.67;;;21.50;28.00;;;;;;5054150;28;20053;-72
2022/01/22 10:15:35;;;;;;;5.47;2.78;;;21.70;26.20;;;;;;5046511;28;20056;-71
2022/01/22 10:18:06;;;;;;;;;;;21.70;27.80;;;;;;5054192;28;20041;-72
2022/01/22 10:20:40;;;;;;;1.88;1.63;;;21.70;27.10;;;;;;5054675;28;19909;-71
2022/01/22 10:23:16;;;;;;;6.05;2.00;;;21.60;27.30;;;;;;5052839;28;20092;-72
2022/01/22 10:25:49;;;;;;;4.80;2.45;;;21.70;26.70;;;;;;5054913;28;20045;-73
2022/01/22 10:28:21;;;;;;;3.40;2.15;;;21.60;24.80;;;;;;5050616;28;20061;-71
2022/01/22 10:30:53;;;;;;;5.27;2.47;;;21.80;27.50;;;;;;5055991;28;20037;-71
2022/01/22 10:36:22;;;;;;;2.55;1.58;;;21.90;28.00;;;;;;5055842;28;20045;-71
2022/01/22 10:39:10;;;;;;;2.33;1.83;;;21.90;32.40;;;;;;5047659;28;20060;-73
2022/01/22 10:41:42;;;;;;;3.08;2.40;;;21.90;27.20;;;;;;5055208;28;20081;-74
2022/01/22 10:44:21;;;;;;;2.30;1.50;;;22.00;27.30;;;;;;5042767;28;20057;-72
2022/01/22 10:47:02;;;;;;;4.00;1.95;;;22.00;29.50;;;;;;5035586;28;20029;-72
2022/01/22 10:49:29;;;;;;;3.47;1.75;;;22.00;24.50;;;;;;5051103;28;20025;-70
2022/01/22 10:52:04;;;;;;;2.67;2.00;;;22.00;25.00;;;;;;5053919;28;20097;-73
2022/01/22 10:54:36;;;;;;;2.83;1.50;;;22.20;29.00;;;;;;5050082;28;20025;-73
2022/01/22 10:57:20;;;;;;;2.08;1.45;;;22.00;35.50;;;;;;5054083;28;20042;-72
2022/01/22 10:59:48;;;;;;;1.65;1.42;;;22.20;37.10;;;;;;5054801;28;20033;-70
2022/01/22 11:02:17;;;;;;;2.70;1.55;;;22.40;38.70;;;;;;5043128;28;20096;-71
2022/01/22 11:04:44;;;;;;;2.03;1.70;;;22.30;27.50;;;;;;5036287;28;20109;-72
2022/01/22 11:07:19;;;;;;;5.45;1.77;;;22.40;38.80;;;;;;5038963;28;20061;-71
2022/01/22 11:09:46;;;;;;;5.13;1.67;;;22.40;43.50;;;;;;5053080;28;20053;-72
2022/01/22 11:12:13;;;;;;;1.92;1.60;;;22.30;43.10;;;;;;5054908;28;20084;-72
2022/01/22 11:14:40;;;;;;;3.05;1.85;;;22.10;39.20;;;;;;5054970;28;20049;-72
2022/01/22 11:17:07;;;;;;;2.17;1.15;;;22.20;44.10;;;;;;5054589;28;20052;-71
2022/01/22 11:19:35;;;;;;;3.22;1.70;;;22.00;43.20;;;;;;5054971;28;20045;-72
2022/01/22 11:22:11;;;;;;;2.85;1.85;;;22.00;45.10;;;;;;5053207;28;20053;-73
2022/01/22 11:24:38;;;;;;;2.75;1.80;;;22.00;41.00;;;;;;5035020;28;20073;-72
2022/01/22 11:27:08;;;;;;;2.95;1.85;;;21.90;43.90;;;;;;5049062;28;20044;-73
2022/01/22 11:29:57;;;;;;;2.85;1.30;;;21.80;46.70;;;;;;5057957;28;20097;-74
2022/01/22 11:32:49;;;;;;;2.10;1.65;;;21.90;42.00;;;;;;5058665;28;20049;-73
2022/01/22 11:35:22;;;;;;;3.47;1.48;;;22.00;43.00;;;;;;5048751;28;20077;-73
2022/01/22 11:38:04;;;;;;;2.30;1.45;;;22.00;47.60;;;;;;5058972;28;20181;-72
2022/01/22 11:40:33;;;;;;;2.63;1.58;;;21.90;43.40;;;;;;5059286;28;20038;-73
2022/01/22 11:43:18;;;;;;;4.40;1.88;;;21.80;46.60;;;;;;5058143;28;20052;-73
2022/01/22 11:45:51;;;;;;;2.13;1.60;;;21.90;50.10;;;;;;5058298;28;20049;-74
2022/01/22 11:48:26;;;;;;;3.42;1.85;;;22.00;47.90;;;;;;5059071;28;20053;-73
2022/01/22 11:51:18;;;;;;;3.60;2.08;;;21.80;49.30;;;;;;5059190;28;20056;-73
2022/01/22 11:53:55;;;;;;;1.95;1.50;;;21.80;51.80;;;;;;5051117;28;20034;-73
2022/01/22 11:56:27;;;;;;;2.53;1.42;;;21.80;49.20;;;;;;5059018;28;20037;-75
2022/01/22 11:58:56;;;;;;;3.20;2.03;;;21.80;51.40;;;;;;5058913;28;20049;-74
2022/01/22 12:01:50;;;;;;;6.38;2.33;;;21.70;53.10;;;;;;5057271;28;20040;-74
2022/01/22 12:04:27;;;;;;;3.70;2.42;;;21.70;53.10;;;;;;5058737;28;20045;-73
2022/01/22 12:07:03;;;;;;;6.75;2.78;;;21.60;53.20;;;;;;5057973;28;20029;-72
2022/01/22 12:15:23;;;;;;;5.78;2.50;;;21.50;54.40;;;;;;5057738;28;20041;-72
2022/01/22 12:17:50;;;;;;;2.45;1.88;;;21.50;53.90;;;;;;5038389;28;20072;-74
2022/01/22 12:23:12;;;;;;;3.25;1.80;;;21.50;53.90;;;;;;5058363;28;20056;-74
2022/01/22 12:25:39;;;;;;;2.50;1.70;;;21.40;53.80;;;;;;5057621;28;20034;-75
2022/01/22 12:28:10;;;;;;;2.38;1.67;;;21.40;52.80;;;;;;5058579;28;20038;-75
2022/01/22 12:30:42;;;;;;;3.65;1.83;;;21.50;51.30;;;;;;5057610;28;20040;-74
2022/01/22 12:33:13;;;;;;;5.20;1.98;;;21.60;54.10;;;;;;5050473;28;20101;-75
2022/01/22 12:35:41;;;;;;;4.10;1.52;;;21.60;51.00;;;;;;5058629;28;20030;-75
2022/01/22 12:38:23;;;;;;;4.25;1.58;;;21.70;57.40;;;;;;5058195;28;20049;-74
2022/01/22 12:40:58;;;;;;;2.15;1.48;;;21.90;57.30;;;;;;5057666;28;20037;-74
2022/01/22 12:43:31;;;;;;;3.05;1.83;;;21.90;58.70;;;;;;5057095;28;20037;-73
2022/01/22 12:46:00;;;;;;;4.53;2.00;;;22.00;56.20;;;;;;5057732;28;20034;-74
2022/01/22 12:48:30;;;;;;;2.72;2.13;;;21.90;53.40;;;;;;5057837;28;20052;-75
2022/01/22 12:51:04;;;;;;;3.63;2.13;;;21.90;53.80;;;;;;5057628;28;20053;-74
2022/01/22 12:53:32;;;;;;;2.85;2.25;;;21.80;53.20;;;;;;5057360;28;20091;-73
2022/01/22 12:58:30;;;;;;;3.50;2.40;;;21.70;51.20;;;;;;5057746;28;20064;-73
2022/01/22 13:01:22;;;;;;;2.13;1.88;;;21.80;54.40;;;;;;5057375;28;20056;-73
2022/01/22 13:03:50;;;;;;;3.20;1.83;;;21.90;54.00;;;;;;5056950;28;20038;-73
2022/01/22 13:06:21;;;;;;;3.30;1.77;;;21.90;54.40;;;;;;5057842;28;20116;-74
2022/01/22 13:09:08;;;;;;;3.13;1.90;;;22.20;54.00;;;;;;5056319;28;20084;-73
2022/01/22 13:11:45;;;;;;;3.30;2.08;;;22.10;53.70;;;;;;5052646;28;20045;-74
2022/01/22 13:14:13;;;;;;;2.28;2.08;;;22.30;52.20;;;;;;5052461;28;20048;-73
2022/01/22 13:17:11;;;;;;;5.22;2.67;;;22.10;53.40;;;;;;5019621;28;20053;-74
2022/01/22 13:19:39;;;;;;;3.53;2.03;;;22.10;53.90;;;;;;5049852;28;20036;-74
2022/01/22 13:22:06;;;;;;;4.85;2.53;;;22.00;53.70;;;;;;5056563;28;20125;-74
2022/01/22 13:24:35;;;;;;;8.73;3.40;;;22.00;53.70;;;;;;5057348;28;20049;-74
2022/01/22 13:29:35;;;;;;;5.15;3.08;;;22.20;53.80;;;;;;5076061;28;20033;-74
2022/01/22 13:32:45;;;;;;;3.25;2.20;;;22.10;53.70;;;;;;5051946;28;20048;-75
2022/01/22 13:49:26;;;;;;;3.53;2.22;;;22.10;52.70;;;;;;5057165;28;20044;-74
2022/01/22 13:51:59;;;;;;;3.53;2.17;;;22.20;53.50;;;;;;5036494;28;20041;-74
2022/01/22 13:54:39;;;;;;;3.15;2.13;;;22.00;53.60;;;;;;5037406;28;20037;-73
2022/01/22 13:57:10;;;;;;;5.07;3.10;;;22.00;53.90;;;;;;5053676;28;20041;-74
2022/01/22 13:59:47;;;;;;;3.60;2.03;;;22.00;53.90;;;;;;5056680;28;20042;-74
2022/01/22 14:04:59;;;;;;;2.65;1.67;;;22.00;53.80;;;;;;5046452;28;20038;-73
2022/01/22 14:07:37;;;;;;;2.72;1.70;;;22.00;53.40;;;;;;5054042;28;20033;-74
2022/01/22 14:10:10;;;;;;;2.47;1.50;;;22.00;53.40;;;;;;5046013;28;20057;-75
2022/01/22 14:12:54;;;;;;;4.15;2.10;;;21.90;53.40;;;;;;5047006;28;20044;-78
2022/01/22 14:15:24;;;;;;;2.97;1.65;;;22.40;56.50;;;;;;5049786;28;20064;-76
2022/01/22 14:20:44;;;;;;;4.45;2.65;;;22.40;54.70;;;;;;5051541;28;20068;-75
2022/01/22 14:23:15;;;;;;;4.25;2.25;;;22.30;55.00;;;;;;5043843;28;20041;-71
2022/01/22 14:25:57;;;;;;;4.78;1.98;;;22.30;55.40;;;;;;5039826;28;20064;-76
2022/01/22 14:28:36;;;;;;;5.55;2.47;;;22.30;55.30;;;;;;5048337;28;20052;-74
2022/01/22 14:31:33;;;;;;;5.93;2.90;;;22.00;55.60;;;;;;5046559;28;20113;-74
2022/01/22 14:34:04;;;;;;;2.75;2.15;;;22.10;56.00;;;;;;5045217;28;20176;-74
2022/01/22 14:36:37;;;;;;;9.70;4.97;;;22.00;55.90;;;;;;5046903;28;20064;-73
2022/01/22 14:39:26;;;;;;;14.52;6.28;;;22.00;56.10;;;;;;5047863;28;20109;-74
2022/01/22 14:44:49;;;;;;;3.65;2.30;;;21.90;56.20;;;;;;5046066;28;20030;-73
2022/01/22 14:47:21;;;;;;;4.85;2.33;;;22.00;47.10;;;;;;5048567;28;20113;-74
2022/01/22 14:49:51;;;;;;;8.98;2.78;;;22.10;40.10;;;;;;5046429;28;20034;-75
2022/01/22 14:52:27;;;;;;;5.93;1.95;;;22.30;35.70;;;;;;5049341;28;20041;-73
2022/01/22 14:54:57;;;;;;;1.90;1.58;;;22.50;39.30;;;;;;5046828;28;20045;-75
2022/01/22 14:57:33;;;;;;;6.90;2.50;;;22.60;36.00;;;;;;5047469;28;20069;-77
2022/01/22 15:00:05;;;;;;;4.97;3.45;;;22.60;44.70;;;;;;5043506;28;20033;-73
2022/01/22 15:02:33;;;;;;;6.65;2.72;;;22.80;50.40;;;;;;5047703;28;20048;-74
2022/01/22 15:05:03;;;;;;;7.03;4.05;;;22.90;49.60;;;;;;5045087;28;20045;-74
2022/01/22 15:07:30;;;;;;;8.63;3.85;;;23.00;49.40;;;;;;5041983;28;20038;-72
2022/01/22 15:09:56;;;;;;;12.75;5.80;;;23.00;48.80;;;;;;5050407;28;20097;-76
2022/01/22 15:12:22;;;;;;;9.55;4.70;;;23.00;47.90;;;;;;5048756;28;20049;-77
2022/01/22 15:14:51;;;;;;;7.38;3.78;;;23.00;47.80;;;;;;5044954;28;20052;-73
2022/01/22 15:19:47;;;;;;;7.40;4.07;;;23.10;46.30;;;;;;5052446;28;20561;-75
2022/01/22 15:22:17;;;;;;;5.80;3.42;;;23.10;43.90;;;;;;5050698;28;20096;-80
2022/01/22 15:24:45;;;;;;;6.20;2.45;;;23.00;40.90;;;;;;5051735;28;20033;-72